Ashley, Louisiana
Current Conditions -  °F | °C
As of 6:53 AM on Saturday 22 Nov 2014 (Local Time) from KTVR Reporting Station
Broken Clouds Broken Clouds  
Wind Chill: 12°   Ceiling: 3800
Heat Index: 12°   Visibility: 10mi
Dew Point:   Wind: 8mph
Humidity: 75%   Direction: 120°ESE
Pressure: 30.25"   Gusts: NA
Location:  32.3599°N, 91.2529°W
Report Text: KTVR 221253Z AUTO 12007KT 10SM BKN038 12/08 A3025 RMK AO2 SLP251 T01220078
Loading
Personal Weather Stations






























Interactive Weather Map New forecast layout! Learn more

10-Day Weather Forecast

Advertisements
Track Severe Weather on mobile